sensor_id;sensor_type;location;lat;lon;timestamp;P1;durP1;ratioP1;P2;durP2;ratioP2
67100;SDS011;54019;61.746;16.106;2023-03-01T00:00:59;0.20;;;0.10;;
67100;SDS011;54019;61.746;16.106;2023-03-01T00:03:26;0.57;;;0.10;;
67100;SDS011;54019;61.746;16.106;2023-03-01T00:05:52;0.30;;;0.10;;
67100;SDS011;54019;61.746;16.106;2023-03-01T00:08:17;0.10;;;0.10;;
67100;SDS011;54019;61.746;16.106;2023-03-01T00:10:43;0.10;;;0.10;;
67100;SDS011;54019;61.746;16.106;2023-03-01T00:13:09;0.50;;;0.10;;
67100;SDS011;54019;61.746;16.106;2023-03-01T00:15:37;0.10;;;0.10;;
67100;SDS011;54019;61.746;16.106;2023-03-01T00:18:05;0.05;;;0.05;;
67100;SDS011;54019;61.746;16.106;2023-03-01T00:20:31;0.10;;;0.10;;
67100;SDS011;54019;61.746;16.106;2023-03-01T00:22:56;0.10;;;0.10;;
67100;SDS011;54019;61.746;16.106;2023-03-01T00:25:22;0.75;;;0.20;;
67100;SDS011;54019;61.746;16.106;2023-03-01T00:27:48;0.10;;;0.10;;
67100;SDS011;54019;61.746;16.106;2023-03-01T00:30:14;0.38;;;0.20;;
67100;SDS011;54019;61.746;16.106;2023-03-01T00:32:40;0.63;;;0.10;;
67100;SDS011;54019;61.746;16.106;2023-03-01T00:35:07;0.40;;;0.10;;
67100;SDS011;54019;61.746;16.106;2023-03-01T00:37:33;0.10;;;0.10;;
67100;SDS011;54019;61.746;16.106;2023-03-01T00:40:00;0.73;;;0.20;;
67100;SDS011;54019;61.746;16.106;2023-03-01T00:42:26;0.20;;;0.10;;
67100;SDS011;54019;61.746;16.106;2023-03-01T00:44:51;0.10;;;0.10;;
67100;SDS011;54019;61.746;16.106;2023-03-01T00:47:17;0.10;;;0.10;;
67100;SDS011;54019;61.746;16.106;2023-03-01T00:49:43;0.55;;;0.22;;
67100;SDS011;54019;61.746;16.106;2023-03-01T00:52:10;0.17;;;0.10;;
67100;SDS011;54019;61.746;16.106;2023-03-01T00:54:36;0.30;;;0.15;;
67100;SDS011;54019;61.746;16.106;2023-03-01T00:57:02;0.10;;;0.10;;
67100;SDS011;54019;61.746;16.106;2023-03-01T00:59:27;0.10;;;0.10;;
67100;SDS011;54019;61.746;16.106;2023-03-01T01:01:53;0.20;;;0.20;;
67100;SDS011;54019;61.746;16.106;2023-03-01T01:04:19;0.32;;;0.10;;
67100;SDS011;54019;61.746;16.106;2023-03-01T01:06:45;0.20;;;0.15;;
67100;SDS011;54019;61.746;16.106;2023-03-01T01:09:13;0.10;;;0.10;;
67100;SDS011;54019;61.746;16.106;2023-03-01T01:11:41;0.40;;;0.10;;
67100;SDS011;54019;61.746;16.106;2023-03-01T01:14:06;0.20;;;0.10;;
67100;SDS011;54019;61.746;16.106;2023-03-01T01:16:32;0.45;;;0.00;;
67100;SDS011;54019;61.746;16.106;2023-03-01T01:18:58;0.10;;;0.10;;
67100;SDS011;54019;61.746;16.106;2023-03-01T01:21:25;0.10;;;0.10;;
67100;SDS011;54019;61.746;16.106;2023-03-01T01:23:51;0.10;;;0.10;;
67100;SDS011;54019;61.746;16.106;2023-03-01T01:26:19;0.45;;;0.20;;
67100;SDS011;54019;61.746;16.106;2023-03-01T01:28:46;0.10;;;0.10;;
67100;SDS011;54019;61.746;16.106;2023-03-01T01:31:12;0.65;;;0.10;;
67100;SDS011;54019;61.746;16.106;2023-03-01T01:33:38;0.88;;;0.10;;
67100;SDS011;54019;61.746;16.106;2023-03-01T01:36:04;0.10;;;0.10;;
67100;SDS011;54019;61.746;16.106;2023-03-01T01:38:31;0.10;;;0.10;;
67100;SDS011;54019;61.746;16.106;2023-03-01T01:40:58;0.10;;;0.10;;
67100;SDS011;54019;61.746;16.106;2023-03-01T01:43:26;0.80;;;0.10;;
67100;SDS011;54019;61.746;16.106;2023-03-01T01:45:55;0.10;;;0.10;;
67100;SDS011;54019;61.746;16.106;2023-03-01T01:48:24;0.10;;;0.10;;
67100;SDS011;54019;61.746;16.106;2023-03-01T01:50:59;1.45;;;0.20;;
67100;SDS011;54019;61.746;16.106;2023-03-01T01:53:26;0.20;;;0.10;;
67100;SDS011;54019;61.746;16.106;2023-03-01T01:55:53;0.00;;;0.00;;
67100;SDS011;54019;61.746;16.106;2023-03-01T01:58:21;0.10;;;0.10;;
67100;SDS011;54019;61.746;16.106;2023-03-01T02:00:50;0.17;;;0.10;;
67100;SDS011;54019;61.746;16.106;2023-03-01T02:03:17;0.82;;;0.20;;
67100;SDS011;54019;61.746;16.106;2023-03-01T02:05:47;0.17;;;0.10;;
67100;SDS011;54019;61.746;16.106;2023-03-01T02:08:19;0.20;;;0.10;;
67100;SDS011;54019;61.746;16.106;2023-03-01T02:10:46;2.38;;;0.52;;
67100;SDS011;54019;61.746;16.106;2023-03-01T02:13:14;0.00;;;0.00;;
67100;SDS011;54019;61.746;16.106;2023-03-01T02:15:40;0.70;;;0.20;;
67100;SDS011;54019;61.746;16.106;2023-03-01T02:18:08;0.40;;;0.10;;
67100;SDS011;54019;61.746;16.106;2023-03-01T02:20:38;0.20;;;0.20;;
67100;SDS011;54019;61.746;16.106;2023-03-01T02:23:09;1.33;;;0.10;;
67100;SDS011;54019;61.746;16.106;2023-03-01T02:25:37;0.15;;;0.10;;
67100;SDS011;54019;61.746;16.106;2023-03-01T02:30:54;0.10;;;0.10;;
67100;SDS011;54019;61.746;16.106;2023-03-01T02:33:19;2.38;;;0.10;;
67100;SDS011;54019;61.746;16.106;2023-03-01T02:35:45;0.50;;;0.17;;
67100;SDS011;54019;61.746;16.106;2023-03-01T02:38:11;0.20;;;0.10;;
67100;SDS011;54019;61.746;16.106;2023-03-01T02:40:37;0.10;;;0.10;;
67100;SDS011;54019;61.746;16.106;2023-03-01T02:43:04;0.10;;;0.10;;
67100;SDS011;54019;61.746;16.106;2023-03-01T02:45:36;0.43;;;0.10;;
67100;SDS011;54019;61.746;16.106;2023-03-01T02:48:02;0.00;;;0.00;;
67100;SDS011;54019;61.746;16.106;2023-03-01T02:50:37;0.20;;;0.20;;
67100;SDS011;54019;61.746;16.106;2023-03-01T02:53:11;0.00;;;0.00;;
67100;SDS011;54019;61.746;16.106;2023-03-01T02:55:41;0.20;;;0.10;;
67100;SDS011;54019;61.746;16.106;2023-03-01T02:58:07;0.50;;;0.20;;
67100;SDS011;54019;61.746;16.106;2023-03-01T03:00:34;0.10;;;0.10;;
67100;SDS011;54019;61.746;16.106;2023-03-01T03:03:04;0.25;;;0.17;;
67100;SDS011;54019;61.746;16.106;2023-03-01T03:05:31;0.60;;;0.20;;
67100;SDS011;54019;61.746;16.106;2023-03-01T03:07:57;0.28;;;0.22;;
67100;SDS011;54019;61.746;16.106;2023-03-01T03:10:26;0.10;;;0.10;;
67100;SDS011;54019;61.746;16.106;2023-03-01T03:12:54;0.28;;;0.10;;
67100;SDS011;54019;61.746;16.106;2023-03-01T03:15:21;0.10;;;0.10;;
67100;SDS011;54019;61.746;16.106;2023-03-01T03:17:49;0.00;;;0.00;;
67100;SDS011;54019;61.746;16.106;2023-03-01T03:20:17;0.05;;;0.05;;
67100;SDS011;54019;61.746;16.106;2023-03-01T03:22:44;3.25;;;0.20;;
67100;SDS011;54019;61.746;16.106;2023-03-01T03:25:11;0.13;;;0.03;;
67100;SDS011;54019;61.746;16.106;2023-03-01T03:27:37;1.20;;;0.20;;
67100;SDS011;54019;61.746;16.106;2023-03-01T03:30:05;0.17;;;0.10;;
67100;SDS011;54019;61.746;16.106;2023-03-01T03:32:32;0.10;;;0.10;;
67100;SDS011;54019;61.746;16.106;2023-03-01T03:35:00;0.88;;;0.17;;
67100;SDS011;54019;61.746;16.106;2023-03-01T03:37:25;0.10;;;0.10;;
67100;SDS011;54019;61.746;16.106;2023-03-01T03:39:51;1.25;;;0.30;;
67100;SDS011;54019;61.746;16.106;2023-03-01T03:42:17;0.28;;;0.10;;
67100;SDS011;54019;61.746;16.106;2023-03-01T03:44:43;0.90;;;0.40;;
67100;SDS011;54019;61.746;16.106;2023-03-01T03:47:08;2.38;;;0.38;;
67100;SDS011;54019;61.746;16.106;2023-03-01T03:49:34;1.65;;;0.20;;
67100;SDS011;54019;61.746;16.106;2023-03-01T03:52:01;0.82;;;0.22;;
67100;SDS011;54019;61.746;16.106;2023-03-01T03:54:27;5.32;;;0.30;;
67100;SDS011;54019;61.746;16.106;2023-03-01T03:56:53;2.15;;;0.30;;
67100;SDS011;54019;61.746;16.106;2023-03-01T03:59:18;2.10;;;0.40;;
67100;SDS011;54019;61.746;16.106;2023-03-01T04:01:44;0.77;;;0.32;;
67100;SDS011;54019;61.746;16.106;2023-03-01T04:04:10;1.02;;;0.30;;
67100;SDS011;54019;61.746;16.106;2023-03-01T04:06:36;2.10;;;0.20;;
67100;SDS011;54019;61.746;16.106;2023-03-01T04:09:03;0.88;;;0.22;;
67100;SDS011;54019;61.746;16.106;2023-03-01T04:11:29;2.75;;;0.32;;
67100;SDS011;54019;61.746;16.106;2023-03-01T04:13:55;4.88;;;0.30;;
67100;SDS011;54019;61.746;16.106;2023-03-01T04:16:22;1.10;;;0.20;;
67100;SDS011;54019;61.746;16.106;2023-03-01T04:18:49;0.55;;;0.20;;
67100;SDS011;54019;61.746;16.106;2023-03-01T04:21:14;2.10;;;0.20;;
67100;SDS011;54019;61.746;16.106;2023-03-01T04:23:41;0.60;;;0.20;;
67100;SDS011;54019;61.746;16.106;2023-03-01T04:26:08;1.65;;;0.20;;
67100;SDS011;54019;61.746;16.106;2023-03-01T04:28:34;3.65;;;0.40;;
67100;SDS011;54019;61.746;16.106;2023-03-01T04:31:02;2.35;;;0.20;;
67100;SDS011;54019;61.746;16.106;2023-03-01T04:33:29;0.65;;;0.10;;
67100;SDS011;54019;61.746;16.106;2023-03-01T04:35:55;0.68;;;0.20;;
67100;SDS011;54019;61.746;16.106;2023-03-01T04:38:21;0.63;;;0.10;;
67100;SDS011;54019;61.746;16.106;2023-03-01T04:40:46;0.52;;;0.20;;
67100;SDS011;54019;61.746;16.106;2023-03-01T04:43:14;0.50;;;0.10;;
67100;SDS011;54019;61.746;16.106;2023-03-01T04:45:39;0.10;;;0.10;;
67100;SDS011;54019;61.746;16.106;2023-03-01T04:48:05;1.52;;;0.10;;
67100;SDS011;54019;61.746;16.106;2023-03-01T04:50:31;0.25;;;0.10;;
67100;SDS011;54019;61.746;16.106;2023-03-01T04:52:57;0.30;;;0.10;;
67100;SDS011;54019;61.746;16.106;2023-03-01T04:55:24;0.35;;;0.00;;
67100;SDS011;54019;61.746;16.106;2023-03-01T04:57:50;0.50;;;0.10;;
67100;SDS011;54019;61.746;16.106;2023-03-01T05:00:17;0.45;;;0.10;;
67100;SDS011;54019;61.746;16.106;2023-03-01T05:02:43;0.10;;;0.10;;
67100;SDS011;54019;61.746;16.106;2023-03-01T05:05:09;0.10;;;0.10;;
67100;SDS011;54019;61.746;16.106;2023-03-01T05:07:35;0.47;;;0.15;;
67100;SDS011;54019;61.746;16.106;2023-03-01T05:10:01;0.10;;;0.10;;
67100;SDS011;54019;61.746;16.106;2023-03-01T05:12:27;0.10;;;0.10;;
67100;SDS011;54019;61.746;16.106;2023-03-01T05:14:52;0.00;;;0.00;;
67100;SDS011;54019;61.746;16.106;2023-03-01T05:17:19;0.22;;;0.10;;
67100;SDS011;54019;61.746;16.106;2023-03-01T05:19:45;0.52;;;0.13;;
67100;SDS011;54019;61.746;16.106;2023-03-01T05:22:11;0.20;;;0.20;;
67100;SDS011;54019;61.746;16.106;2023-03-01T05:24:37;0.20;;;0.10;;
67100;SDS011;54019;61.746;16.106;2023-03-01T05:27:02;0.25;;;0.10;;
67100;SDS011;54019;61.746;16.106;2023-03-01T05:29:29;0.85;;;0.20;;
67100;SDS011;54019;61.746;16.106;2023-03-01T05:31:57;0.38;;;0.30;;
67100;SDS011;54019;61.746;16.106;2023-03-01T05:34:25;1.20;;;0.05;;
67100;SDS011;54019;61.746;16.106;2023-03-01T05:36:53;0.10;;;0.10;;
67100;SDS011;54019;61.746;16.106;2023-03-01T05:39:19;0.35;;;0.08;;
67100;SDS011;54019;61.746;16.106;2023-03-01T05:41:45;0.08;;;0.08;;
67100;SDS011;54019;61.746;16.106;2023-03-01T05:44:11;0.15;;;0.10;;
67100;SDS011;54019;61.746;16.106;2023-03-01T05:46:37;0.20;;;0.17;;
67100;SDS011;54019;61.746;16.106;2023-03-01T05:49:03;0.08;;;0.03;;
67100;SDS011;54019;61.746;16.106;2023-03-01T05:51:30;0.00;;;0.00;;
67100;SDS011;54019;61.746;16.106;2023-03-01T05:53:56;0.10;;;0.10;;
67100;SDS011;54019;61.746;16.106;2023-03-01T05:56:21;0.10;;;0.10;;
67100;SDS011;54019;61.746;16.106;2023-03-01T05:58:47;0.80;;;0.13;;
67100;SDS011;54019;61.746;16.106;2023-03-01T06:01:13;1.30;;;0.10;;
67100;SDS011;54019;61.746;16.106;2023-03-01T06:03:39;0.00;;;0.00;;
67100;SDS011;54019;61.746;16.106;2023-03-01T06:06:05;1.50;;;0.13;;
67100;SDS011;54019;61.746;16.106;2023-03-01T06:08:32;0.10;;;0.10;;
67100;SDS011;54019;61.746;16.106;2023-03-01T06:10:58;0.15;;;0.10;;
67100;SDS011;54019;61.746;16.106;2023-03-01T06:13:24;0.10;;;0.10;;
67100;SDS011;54019;61.746;16.106;2023-03-01T06:15:50;0.10;;;0.10;;
67100;SDS011;54019;61.746;16.106;2023-03-01T06:18:16;0.10;;;0.10;;
67100;SDS011;54019;61.746;16.106;2023-03-01T06:20:41;3.47;;;0.10;;
67100;SDS011;54019;61.746;16.106;2023-03-01T06:23:07;0.17;;;0.10;;
67100;SDS011;54019;61.746;16.106;2023-03-01T06:25:34;0.70;;;0.10;;
67100;SDS011;54019;61.746;16.106;2023-03-01T06:28:00;0.05;;;0.05;;
67100;SDS011;54019;61.746;16.106;2023-03-01T06:30:26;0.10;;;0.10;;
67100;SDS011;54019;61.746;16.106;2023-03-01T06:32:52;0.10;;;0.10;;
67100;SDS011;54019;61.746;16.106;2023-03-01T06:35:18;0.35;;;0.10;;
67100;SDS011;54019;61.746;16.106;2023-03-01T06:37:45;0.10;;;0.10;;
67100;SDS011;54019;61.746;16.106;2023-03-01T06:40:12;0.10;;;0.10;;
67100;SDS011;54019;61.746;16.106;2023-03-01T06:42:40;0.15;;;0.13;;
67100;SDS011;54019;61.746;16.106;2023-03-01T06:45:09;0.00;;;0.00;;
67100;SDS011;54019;61.746;16.106;2023-03-01T06:47:35;0.15;;;0.10;;
67100;SDS011;54019;61.746;16.106;2023-03-01T06:50:01;0.10;;;0.10;;
67100;SDS011;54019;61.746;16.106;2023-03-01T06:52:28;0.10;;;0.10;;
67100;SDS011;54019;61.746;16.106;2023-03-01T06:54:53;0.40;;;0.10;;
67100;SDS011;54019;61.746;16.106;2023-03-01T06:57:19;0.00;;;0.00;;
67100;SDS011;54019;61.746;16.106;2023-03-01T06:59:47;0.40;;;0.10;;
67100;SDS011;54019;61.746;16.106;2023-03-01T07:02:13;0.10;;;0.10;;
67100;SDS011;54019;61.746;16.106;2023-03-01T07:04:39;0.73;;;0.10;;
67100;SDS011;54019;61.746;16.106;2023-03-01T07:07:05;0.10;;;0.10;;
67100;SDS011;54019;61.746;16.106;2023-03-01T07:09:31;0.10;;;0.10;;
67100;SDS011;54019;61.746;16.106;2023-03-01T07:11:57;0.10;;;0.10;;
67100;SDS011;54019;61.746;16.106;2023-03-01T07:14:23;0.10;;;0.10;;
67100;SDS011;54019;61.746;16.106;2023-03-01T07:16:50;0.28;;;0.10;;
67100;SDS011;54019;61.746;16.106;2023-03-01T07:19:16;0.10;;;0.10;;
67100;SDS011;54019;61.746;16.106;2023-03-01T07:21:42;0.10;;;0.10;;
67100;SDS011;54019;61.746;16.106;2023-03-01T07:24:08;0.10;;;0.10;;
67100;SDS011;54019;61.746;16.106;2023-03-01T07:26:34;0.20;;;0.13;;
67100;SDS011;54019;61.746;16.106;2023-03-01T07:29:00;1.25;;;0.10;;
67100;SDS011;54019;61.746;16.106;2023-03-01T07:31:26;0.47;;;0.10;;
67100;SDS011;54019;61.746;16.106;2023-03-01T07:33:53;0.10;;;0.10;;
67100;SDS011;54019;61.746;16.106;2023-03-01T07:36:19;2.13;;;0.10;;
67100;SDS011;54019;61.746;16.106;2023-03-01T07:38:45;0.10;;;0.10;;
67100;SDS011;54019;61.746;16.106;2023-03-01T07:41:10;0.45;;;0.20;;
67100;SDS011;54019;61.746;16.106;2023-03-01T07:43:36;0.45;;;0.00;;
67100;SDS011;54019;61.746;16.106;2023-03-01T07:46:02;0.10;;;0.10;;
67100;SDS011;54019;61.746;16.106;2023-03-01T07:48:29;0.10;;;0.10;;
67100;SDS011;54019;61.746;16.106;2023-03-01T07:50:58;0.00;;;0.00;;
67100;SDS011;54019;61.746;16.106;2023-03-01T07:53:24;0.90;;;0.10;;
67100;SDS011;54019;61.746;16.106;2023-03-01T07:55:59;0.20;;;0.10;;
67100;SDS011;54019;61.746;16.106;2023-03-01T07:58:26;0.05;;;0.05;;
67100;SDS011;54019;61.746;16.106;2023-03-01T08:00:51;0.10;;;0.10;;
67100;SDS011;54019;61.746;16.106;2023-03-01T08:03:17;0.32;;;0.10;;
67100;SDS011;54019;61.746;16.106;2023-03-01T08:05:43;0.10;;;0.10;;
67100;SDS011;54019;61.746;16.106;2023-03-01T08:08:10;1.13;;;0.10;;
67100;SDS011;54019;61.746;16.106;2023-03-01T08:10:36;0.20;;;0.10;;
67100;SDS011;54019;61.746;16.106;2023-03-01T08:13:02;0.10;;;0.10;;
67100;SDS011;54019;61.746;16.106;2023-03-01T08:15:27;0.10;;;0.10;;
67100;SDS011;54019;61.746;16.106;2023-03-01T08:17:53;1.30;;;0.10;;
67100;SDS011;54019;61.746;16.106;2023-03-01T08:20:19;0.10;;;0.10;;
67100;SDS011;54019;61.746;16.106;2023-03-01T08:22:45;0.90;;;0.40;;
67100;SDS011;54019;61.746;16.106;2023-03-01T08:25:12;0.10;;;0.10;;
67100;SDS011;54019;61.746;16.106;2023-03-01T08:27:38;0.20;;;0.00;;
67100;SDS011;54019;61.746;16.106;2023-03-01T08:30:04;0.10;;;0.10;;
67100;SDS011;54019;61.746;16.106;2023-03-01T08:32:34;0.10;;;0.10;;
67100;SDS011;54019;61.746;16.106;2023-03-01T08:35:01;0.25;;;0.10;;
67100;SDS011;54019;61.746;16.106;2023-03-01T08:37:27;0.00;;;0.00;;
67100;SDS011;54019;61.746;16.106;2023-03-01T08:39:53;0.10;;;0.10;;
67100;SDS011;54019;61.746;16.106;2023-03-01T08:42:20;0.10;;;0.10;;
67100;SDS011;54019;61.746;16.106;2023-03-01T08:44:46;0.10;;;0.10;;
67100;SDS011;54019;61.746;16.106;2023-03-01T08:47:11;1.23;;;0.10;;
67100;SDS011;54019;61.746;16.106;2023-03-01T08:49:37;0.65;;;0.10;;
67100;SDS011;54019;61.746;16.106;2023-03-01T08:52:03;2.00;;;0.10;;
67100;SDS011;54019;61.746;16.106;2023-03-01T08:54:29;0.10;;;0.10;;
67100;SDS011;54019;61.746;16.106;2023-03-01T08:56:55;0.05;;;0.05;;
67100;SDS011;54019;61.746;16.106;2023-03-01T08:59:22;0.10;;;0.10;;
67100;SDS011;54019;61.746;16.106;2023-03-01T09:01:47;0.10;;;0.10;;
67100;SDS011;54019;61.746;16.106;2023-03-01T09:04:14;0.52;;;0.00;;
67100;SDS011;54019;61.746;16.106;2023-03-01T09:06:40;0.10;;;0.10;;
67100;SDS011;54019;61.746;16.106;2023-03-01T09:09:06;0.17;;;0.17;;
67100;SDS011;54019;61.746;16.106;2023-03-01T09:11:37;0.03;;;0.03;;
67100;SDS011;54019;61.746;16.106;2023-03-01T09:14:04;0.10;;;0.10;;
67100;SDS011;54019;61.746;16.106;2023-03-01T09:16:32;0.10;;;0.10;;
67100;SDS011;54019;61.746;16.106;2023-03-01T09:18:58;0.10;;;0.10;;
67100;SDS011;54019;61.746;16.106;2023-03-01T09:21:23;0.05;;;0.00;;
67100;SDS011;54019;61.746;16.106;2023-03-01T09:23:49;0.20;;;0.10;;
67100;SDS011;54019;61.746;16.106;2023-03-01T09:26:16;0.00;;;0.00;;
67100;SDS011;54019;61.746;16.106;2023-03-01T09:28:43;1.08;;;0.10;;
67100;SDS011;54019;61.746;16.106;2023-03-01T09:31:09;0.10;;;0.10;;
67100;SDS011;54019;61.746;16.106;2023-03-01T09:33:37;0.10;;;0.10;;
67100;SDS011;54019;61.746;16.106;2023-03-01T09:36:04;0.08;;;0.00;;
67100;SDS011;54019;61.746;16.106;2023-03-01T09:38:31;0.00;;;0.00;;
67100;SDS011;54019;61.746;16.106;2023-03-01T09:40:57;0.00;;;0.00;;
67100;SDS011;54019;61.746;16.106;2023-03-01T09:43:23;0.47;;;0.08;;
67100;SDS011;54019;61.746;16.106;2023-03-01T09:45:55;0.03;;;0.03;;
67100;SDS011;54019;61.746;16.106;2023-03-01T09:48:28;0.10;;;0.10;;
67100;SDS011;54019;61.746;16.106;2023-03-01T09:50:59;0.00;;;0.00;;
67100;SDS011;54019;61.746;16.106;2023-03-01T09:53:32;0.10;;;0.10;;
67100;SDS011;54019;61.746;16.106;2023-03-01T09:55:58;0.10;;;0.10;;
67100;SDS011;54019;61.746;16.106;2023-03-01T09:58:32;0.10;;;0.10;;
67100;SDS011;54019;61.746;16.106;2023-03-01T10:01:06;0.13;;;0.10;;
67100;SDS011;54019;61.746;16.106;2023-03-01T10:03:43;0.00;;;0.00;;
67100;SDS011;54019;61.746;16.106;2023-03-01T10:06:18;0.22;;;0.10;;
67100;SDS011;54019;61.746;16.106;2023-03-01T10:08:47;1.13;;;0.10;;
67100;SDS011;54019;61.746;16.106;2023-03-01T10:11:20;0.10;;;0.10;;
67100;SDS011;54019;61.746;16.106;2023-03-01T10:13:49;0.35;;;0.20;;
67100;SDS011;54019;61.746;16.106;2023-03-01T10:16:21;0.10;;;0.10;;
67100;SDS011;54019;61.746;16.106;2023-03-01T10:18:52;0.40;;;0.07;;
67100;SDS011;54019;61.746;16.106;2023-03-01T10:21:22;0.05;;;0.00;;
67100;SDS011;54019;61.746;16.106;2023-03-01T10:23:49;0.70;;;0.10;;
67100;SDS011;54019;61.746;16.106;2023-03-01T10:26:25;1.35;;;0.20;;
67100;SDS011;54019;61.746;16.106;2023-03-01T10:29:01;0.10;;;0.10;;
67100;SDS011;54019;61.746;16.106;2023-03-01T10:31:32;0.55;;;0.10;;
67100;SDS011;54019;61.746;16.106;2023-03-01T10:34:07;0.00;;;0.00;;
67100;SDS011;54019;61.746;16.106;2023-03-01T10:36:36;0.30;;;0.10;;
67100;SDS011;54019;61.746;16.106;2023-03-01T10:39:05;1.17;;;0.10;;
67100;SDS011;54019;61.746;16.106;2023-03-01T10:41:40;0.10;;;0.10;;
67100;SDS011;54019;61.746;16.106;2023-03-01T10:44:39;0.10;;;0.10;;
67100;SDS011;54019;61.746;16.106;2023-03-01T10:47:12;0.10;;;0.10;;
67100;SDS011;54019;61.746;16.106;2023-03-01T10:49:43;0.10;;;0.00;;
67100;SDS011;54019;61.746;16.106;2023-03-01T10:52:23;0.95;;;0.10;;
67100;SDS011;54019;61.746;16.106;2023-03-01T10:54:51;0.20;;;0.10;;
67100;SDS011;54019;61.746;16.106;2023-03-01T10:57:30;0.20;;;0.20;;
67100;SDS011;54019;61.746;16.106;2023-03-01T11:00:13;0.10;;;0.10;;
67100;SDS011;54019;61.746;16.106;2023-03-01T11:02:46;0.35;;;0.00;;
67100;SDS011;54019;61.746;16.106;2023-03-01T11:05:17;0.00;;;0.00;;
67100;SDS011;54019;61.746;16.106;2023-03-01T11:07:48;2.20;;;0.10;;
67100;SDS011;54019;61.746;16.106;2023-03-01T11:10:16;0.03;;;0.03;;
67100;SDS011;54019;61.746;16.106;2023-03-01T11:12:42;1.25;;;0.10;;
67100;SDS011;54019;61.746;16.106;2023-03-01T11:15:15;0.00;;;0.00;;
67100;SDS011;54019;61.746;16.106;2023-03-01T11:17:46;0.52;;;0.10;;
67100;SDS011;54019;61.746;16.106;2023-03-01T11:20:15;0.10;;;0.10;;
67100;SDS011;54019;61.746;16.106;2023-03-01T11:22:51;0.20;;;0.10;;
67100;SDS011;54019;61.746;16.106;2023-03-01T11:25:21;0.70;;;0.10;;
67100;SDS011;54019;61.746;16.106;2023-03-01T11:27:50;0.10;;;0.10;;
67100;SDS011;54019;61.746;16.106;2023-03-01T11:30:18;0.28;;;0.15;;
67100;SDS011;54019;61.746;16.106;2023-03-01T11:32:47;0.50;;;0.10;;
67100;SDS011;54019;61.746;16.106;2023-03-01T11:35:19;0.93;;;0.10;;
67100;SDS011;54019;61.746;16.106;2023-03-01T11:37:58;1.55;;;0.20;;
67100;SDS011;54019;61.746;16.106;2023-03-01T11:43:04;0.88;;;0.13;;
67100;SDS011;54019;61.746;16.106;2023-03-01T11:45:46;2.42;;;0.10;;
67100;SDS011;54019;61.746;16.106;2023-03-01T11:51:08;0.63;;;0.17;;
67100;SDS011;54019;61.746;16.106;2023-03-01T11:53:48;0.73;;;0.10;;
67100;SDS011;54019;61.746;16.106;2023-03-01T11:56:27;2.33;;;0.10;;
67100;SDS011;54019;61.746;16.106;2023-03-01T11:59:04;1.27;;;0.20;;
67100;SDS011;54019;61.746;16.106;2023-03-01T12:01:52;1.52;;;0.40;;
67100;SDS011;54019;61.746;16.106;2023-03-01T12:04:46;5.93;;;0.68;;
67100;SDS011;54019;61.746;16.106;2023-03-01T12:07:30;15.98;;;1.80;;
67100;SDS011;54019;61.746;16.106;2023-03-01T12:10:19;8.70;;;1.85;;
67100;SDS011;54019;61.746;16.106;2023-03-01T12:12:52;5.45;;;0.98;;
67100;SDS011;54019;61.746;16.106;2023-03-01T12:15:44;6.03;;;1.17;;
67100;SDS011;54019;61.746;16.106;2023-03-01T12:18:43;2.75;;;0.65;;
67100;SDS011;54019;61.746;16.106;2023-03-01T12:21:24;2.60;;;0.60;;
67100;SDS011;54019;61.746;16.106;2023-03-01T12:24:03;3.65;;;0.70;;
67100;SDS011;54019;61.746;16.106;2023-03-01T12:26:50;2.63;;;0.40;;
67100;SDS011;54019;61.746;16.106;2023-03-01T12:29:25;1.00;;;0.40;;
67100;SDS011;54019;61.746;16.106;2023-03-01T12:32:01;3.50;;;0.45;;
67100;SDS011;54019;61.746;16.106;2023-03-01T12:34:59;2.20;;;0.35;;
67100;SDS011;54019;61.746;16.106;2023-03-01T12:37:44;1.98;;;0.35;;
67100;SDS011;54019;61.746;16.106;2023-03-01T12:40:21;1.10;;;0.40;;
67100;SDS011;54019;61.746;16.106;2023-03-01T12:43:10;1.90;;;0.40;;
67100;SDS011;54019;61.746;16.106;2023-03-01T12:45:53;3.50;;;0.40;;
67100;SDS011;54019;61.746;16.106;2023-03-01T12:48:36;3.05;;;0.35;;
67100;SDS011;54019;61.746;16.106;2023-03-01T12:51:08;1.55;;;0.30;;
67100;SDS011;54019;61.746;16.106;2023-03-01T12:53:39;1.60;;;0.30;;
67100;SDS011;54019;61.746;16.106;2023-03-01T12:56:07;1.55;;;0.30;;
67100;SDS011;54019;61.746;16.106;2023-03-01T12:58:39;2.05;;;0.30;;
67100;SDS011;54019;61.746;16.106;2023-03-01T13:01:10;1.23;;;0.30;;
67100;SDS011;54019;61.746;16.106;2023-03-01T13:03:51;1.95;;;0.40;;
67100;SDS011;54019;61.746;16.106;2023-03-01T13:06:29;1.70;;;0.20;;
67100;SDS011;54019;61.746;16.106;2023-03-01T13:09:02;1.35;;;0.52;;
67100;SDS011;54019;61.746;16.106;2023-03-01T13:11:32;2.22;;;0.20;;
67100;SDS011;54019;61.746;16.106;2023-03-01T13:16:59;1.10;;;0.10;;
67100;SDS011;54019;61.746;16.106;2023-03-01T13:19:25;1.45;;;0.20;;
67100;SDS011;54019;61.746;16.106;2023-03-01T13:21:52;0.28;;;0.20;;
67100;SDS011;54019;61.746;16.106;2023-03-01T13:24:26;1.20;;;0.13;;
67100;SDS011;54019;61.746;16.106;2023-03-01T13:27:21;0.73;;;0.20;;
67100;SDS011;54019;61.746;16.106;2023-03-01T13:29:48;0.43;;;0.13;;
67100;SDS011;54019;61.746;16.106;2023-03-01T13:32:21;0.57;;;0.10;;
67100;SDS011;54019;61.746;16.106;2023-03-01T13:34:52;0.25;;;0.20;;
67100;SDS011;54019;61.746;16.106;2023-03-01T13:37:25;0.63;;;0.10;;
67100;SDS011;54019;61.746;16.106;2023-03-01T13:39:53;0.47;;;0.20;;
67100;SDS011;54019;61.746;16.106;2023-03-01T13:45:16;0.70;;;0.20;;
67100;SDS011;54019;61.746;16.106;2023-03-01T13:47:48;0.30;;;0.10;;
67100;SDS011;54019;61.746;16.106;2023-03-01T13:50:18;0.32;;;0.10;;
67100;SDS011;54019;61.746;16.106;2023-03-01T13:52:47;1.77;;;0.20;;
67100;SDS011;54019;61.746;16.106;2023-03-01T13:55:17;0.10;;;0.10;;
67100;SDS011;54019;61.746;16.106;2023-03-01T13:57:47;0.10;;;0.10;;
67100;SDS011;54019;61.746;16.106;2023-03-01T14:00:27;0.20;;;0.10;;
67100;SDS011;54019;61.746;16.106;2023-03-01T14:03:04;0.25;;;0.20;;
67100;SDS011;54019;61.746;16.106;2023-03-01T14:05:34;1.55;;;0.20;;
67100;SDS011;54019;61.746;16.106;2023-03-01T14:08:00;0.40;;;0.15;;
67100;SDS011;54019;61.746;16.106;2023-03-01T14:10:32;0.35;;;0.10;;
67100;SDS011;54019;61.746;16.106;2023-03-01T14:13:04;0.35;;;0.10;;
67100;SDS011;54019;61.746;16.106;2023-03-01T14:15:44;0.80;;;0.10;;
67100;SDS011;54019;61.746;16.106;2023-03-01T14:18:17;0.05;;;0.00;;
